Time,TemperatureF,DewpointF,PressureIn,WindDirection,WindDirectionDegrees,WindSpeedMPH,WindSpeedGustMPH,Humidity,HourlyPrecipIn,Conditions,Clouds,dailyrainin,SoftwareType,DateUTC
2017-12-16 00:01:00,35.2,34.7,29.45,NW,315,0.0,0.0,98,0.00,,,0.00,meteobridge,2017-12-15 23:01:00,
2017-12-16 00:06:00,35.2,34.7,29.45,WNW,284,0.0,1.0,98,0.00,,,0.00,meteobridge,2017-12-15 23:06:00,
2017-12-16 00:11:00,35.1,34.5,29.45,West,262,0.9,3.0,98,0.00,,,0.00,meteobridge,2017-12-15 23:11:00,
2017-12-16 00:16:00,35.1,34.5,29.45,WSW,254,0.0,1.0,98,0.00,,,0.00,meteobridge,2017-12-15 23:16:00,
2017-12-16 00:21:00,35.2,34.7,29.45,WNW,297,0.0,0.0,98,0.00,,,0.00,meteobridge,2017-12-15 23:21:00,
2017-12-16 00:26:00,35.2,34.7,29.45,WSW,255,0.0,1.0,98,0.00,,,0.00,meteobridge,2017-12-15 23:26:00,
2017-12-16 00:31:00,35.8,35.6,29.45,NNE,20,2.0,5.0,99,0.00,,,0.00,meteobridge,2017-12-15 23:31:00,
2017-12-16 00:36:00,36.3,36.1,29.45,North,11,0.9,1.0,99,0.00,,,0.00,meteobridge,2017-12-15 23:36:00,
2017-12-16 00:39:00,36.9,36.7,29.44,North,349,2.0,6.0,99,0.00,,,0.00,meteobridge,2017-12-15 23:39:00,
2017-12-16 00:45:00,37.2,37.0,29.44,NW,316,0.0,1.0,99,0.00,,,0.00,meteobridge,2017-12-15 23:45:00,
2017-12-16 00:50:00,37.2,37.0,29.44,WNW,288,0.9,3.0,99,0.00,,,0.00,meteobridge,2017-12-15 23:50:00,
2017-12-16 00:55:00,37.6,37.4,29.44,SW,225,0.0,3.0,99,0.00,,,0.00,meteobridge,2017-12-15 23:55:00,
2017-12-16 01:01:00,37.6,37.4,29.44,South,183,0.9,4.0,99,0.00,,,0.00,meteobridge,2017-12-16 00:01:00,
2017-12-16 01:05:00,37.2,37.0,29.44,NW,321,2.9,6.0,99,0.00,,,0.00,meteobridge,2017-12-16 00:05:00,
2017-12-16 01:11:00,37.4,37.2,29.44,NE,47,0.9,7.0,99,0.00,,,0.00,meteobridge,2017-12-16 00:11:00,
2017-12-16 01:16:00,37.8,37.6,29.45,NNW,328,0.9,6.0,99,0.00,,,0.00,meteobridge,2017-12-16 00:16:00,
2017-12-16 01:19:00,37.9,37.8,29.45,WNW,289,0.0,2.0,99,0.00,,,0.00,meteobridge,2017-12-16 00:19:00,
2017-12-16 01:24:00,38.5,37.8,29.45,WNW,288,2.0,4.0,97,0.00,,,0.00,meteobridge,2017-12-16 00:24:00,
2017-12-16 01:25:00,38.7,37.6,29.45,WNW,282,0.0,2.0,96,0.00,,,0.00,meteobridge,2017-12-16 00:25:00,
2017-12-16 01:31:00,38.8,35.2,29.44,West,262,2.0,3.0,87,0.00,,,0.00,meteobridge,2017-12-16 00:31:00,
2017-12-16 01:36:00,37.2,32.9,29.44,West,270,0.0,0.0,84,0.00,,,0.00,meteobridge,2017-12-16 00:36:00,
2017-12-16 01:41:00,37.2,32.9,29.45,West,270,0.0,0.0,84,0.00,,,0.00,meteobridge,2017-12-16 00:41:00,
2017-12-16 01:47:00,37.2,32.9,29.45,West,270,0.0,-999.0,84,0.00,,,0.00,meteobridge,2017-12-16 00:47:00,
2017-12-16 01:49:00,37.2,32.9,29.45,West,270,0.0,-999.0,84,0.00,,,0.00,meteobridge,2017-12-16 00:49:00,
2017-12-16 01:56:00,-999.9,-99.9,29.46,North,-9999,-999.9,-999.0,-999,0.00,,,0.00,meteobridge,2017-12-16 00:56:00,
2017-12-16 01:59:00,-999.9,-99.9,29.46,North,-9999,-999.9,-999.0,-999,0.00,,,0.00,meteobridge,2017-12-16 00:59:00,
2017-12-16 02:04:00,-999.9,-99.9,29.47,North,-9999,-999.9,-999.0,-999,0.00,,,0.00,meteobridge,2017-12-16 01:04:00,
2017-12-16 02:10:00,-999.9,-99.9,29.47,North,-9999,-999.9,-999.0,-999,0.00,,,0.00,meteobridge,2017-12-16 01:10:00,
2017-12-16 02:15:00,-999.9,-99.9,29.49,North,-9999,-999.9,-999.0,-999,0.00,,,0.00,meteobridge,2017-12-16 01:15:00,
2017-12-16 02:20:00,-999.9,-99.9,29.49,North,-9999,-999.9,-999.0,-999,0.00,,,0.00,meteobridge,2017-12-16 01:20:00,
2017-12-16 02:25:00,-999.9,-99.9,29.50,North,-9999,-999.9,-999.0,-999,0.00,,,0.00,meteobridge,2017-12-16 01:25:00,
2017-12-16 02:31:00,-999.9,-99.9,29.50,North,-9999,-999.9,-999.0,-999,0.00,,,0.00,meteobridge,2017-12-16 01:31:00,
2017-12-16 02:36:00,-999.9,-99.9,29.51,North,-9999,-999.9,-999.0,-999,0.00,,,0.00,meteobridge,2017-12-16 01:36:00,
2017-12-16 02:42:00,-999.9,-99.9,29.51,North,-9999,-999.9,-999.0,-999,0.00,,,0.00,meteobridge,2017-12-16 01:42:00,
2017-12-16 02:47:00,-999.9,-99.9,29.51,North,-9999,-999.9,-999.0,-999,-99.99,,,0.00,meteobridge,2017-12-16 01:47:00,
2017-12-16 02:52:00,-999.9,-99.9,29.51,North,-9999,-999.9,-999.0,-999,-99.99,,,0.00,meteobridge,2017-12-16 01:52:00,
2017-12-16 02:58:00,-999.9,-99.9,29.51,North,-9999,-999.9,-999.0,-999,-99.99,,,0.00,meteobridge,2017-12-16 01:58:00,
2017-12-16 03:03:00,-999.9,-99.9,29.51,North,-9999,-999.9,-999.0,-999,-99.99,,,0.00,meteobridge,2017-12-16 02:03:00,
2017-12-16 03:09:00,-999.9,-99.9,29.52,North,-9999,-999.9,-999.0,-999,-99.99,,,0.00,meteobridge,2017-12-16 02:09:00,
2017-12-16 03:14:00,-999.9,-99.9,29.52,North,-9999,-999.9,-999.0,-999,-99.99,,,0.00,meteobridge,2017-12-16 02:14:00,
2017-12-16 03:17:00,-999.9,-99.9,29.52,North,-9999,-999.9,-999.0,-999,-99.99,,,0.00,meteobridge,2017-12-16 02:17:00,
2017-12-16 03:23:00,-999.9,-99.9,29.52,North,-9999,-999.9,-999.0,-999,-99.99,,,0.00,meteobridge,2017-12-16 02:23:00,
2017-12-16 03:29:00,-999.9,-99.9,29.52,North,-9999,-999.9,-999.0,-999,-99.99,,,0.00,meteobridge,2017-12-16 02:29:00,
2017-12-16 03:34:00,-999.9,-99.9,29.52,North,-9999,-999.9,-999.0,-999,-99.99,,,0.00,meteobridge,2017-12-16 02:34:00,
2017-12-16 03:40:00,-999.9,-99.9,29.53,North,-9999,-999.9,-999.0,-999,-99.99,,,0.00,meteobridge,2017-12-16 02:40:00,
2017-12-16 03:46:00,-999.9,-99.9,29.53,North,-9999,-999.9,-999.0,-999,-99.99,,,0.00,meteobridge,2017-12-16 02:46:00,
2017-12-16 03:52:00,-999.9,-99.9,29.53,North,-9999,-999.9,-999.0,-999,-99.99,,,0.00,meteobridge,2017-12-16 02:52:00,
2017-12-16 03:57:00,-999.9,-99.9,29.53,North,-9999,-999.9,-999.0,-999,-99.99,,,0.00,meteobridge,2017-12-16 02:57:00,
2017-12-16 04:02:00,-999.9,-99.9,29.54,North,-9999,-999.9,-999.0,-999,-99.99,,,0.00,meteobridge,2017-12-16 03:02:00,
2017-12-16 04:07:00,-999.9,-99.9,29.54,North,-9999,-999.9,-999.0,-999,-99.99,,,0.00,meteobridge,2017-12-16 03:07:00,
2017-12-16 04:16:00,-999.9,-99.9,29.54,North,-9999,-999.9,-999.0,-999,-99.99,,,0.00,meteobridge,2017-12-16 03:16:00,
2017-12-16 04:21:00,-999.9,-99.9,29.54,North,-9999,-999.9,-999.0,-999,-99.99,,,0.00,meteobridge,2017-12-16 03:21:00,
2017-12-16 04:25:00,-999.9,-99.9,29.54,North,-9999,-999.9,-999.0,-999,-99.99,,,0.00,meteobridge,2017-12-16 03:25:00,
2017-12-16 04:31:00,-999.9,-99.9,29.55,North,-9999,-999.9,-999.0,-999,-99.99,,,0.00,meteobridge,2017-12-16 03:31:00,
2017-12-16 04:32:00,-999.9,-99.9,29.55,North,-9999,-999.9,-999.0,-999,-99.99,,,0.00,meteobridge,2017-12-16 03:32:00,
2017-12-16 04:37:00,-999.9,-99.9,29.55,North,-9999,-999.9,-999.0,-999,-99.99,,,0.00,meteobridge,2017-12-16 03:37:00,
2017-12-16 04:43:00,-999.9,-99.9,29.56,North,-9999,-999.9,-999.0,-999,-99.99,,,0.00,meteobridge,2017-12-16 03:43:00,
2017-12-16 04:48:00,-999.9,-99.9,29.56,North,-9999,-999.9,-999.0,-999,-99.99,,,0.00,meteobridge,2017-12-16 03:48:00,
2017-12-16 04:53:00,-999.9,-99.9,29.57,North,-9999,-999.9,-999.0,-999,-99.99,,,0.00,meteobridge,2017-12-16 03:53:00,
2017-12-16 04:58:00,-999.9,-99.9,29.57,North,-9999,-999.9,-999.0,-999,-99.99,,,0.00,meteobridge,2017-12-16 03:58:00,
2017-12-16 05:03:00,-999.9,-99.9,29.57,North,-9999,-999.9,-999.0,-999,-99.99,,,0.00,meteobridge,2017-12-16 04:03:00,
2017-12-16 05:09:00,-999.9,-99.9,29.57,North,-9999,-999.9,-999.0,-999,-99.99,,,0.00,meteobridge,2017-12-16 04:09:00,
2017-12-16 05:15:00,-999.9,-99.9,29.58,North,-9999,-999.9,-999.0,-999,-99.99,,,0.00,meteobridge,2017-12-16 04:15:00,
2017-12-16 05:20:00,-999.9,-99.9,29.58,North,-9999,-999.9,-999.0,-999,-99.99,,,0.00,meteobridge,2017-12-16 04:20:00,
2017-12-16 05:24:00,-999.9,-99.9,29.58,North,-9999,-999.9,-999.0,-999,-99.99,,,0.00,meteobridge,2017-12-16 04:24:00,
2017-12-16 05:30:00,-999.9,-99.9,29.58,North,-9999,-999.9,-999.0,-999,-99.99,,,0.00,meteobridge,2017-12-16 04:30:00,
2017-12-16 05:35:00,-999.9,-99.9,29.59,North,-9999,-999.9,-999.0,-999,-99.99,,,0.00,meteobridge,2017-12-16 04:35:00,
2017-12-16 05:41:00,-999.9,-99.9,29.59,North,-9999,-999.9,-999.0,-999,-99.99,,,0.00,meteobridge,2017-12-16 04:41:00,
2017-12-16 05:46:00,-999.9,-99.9,29.59,North,-9999,-999.9,-999.0,-999,-99.99,,,0.00,meteobridge,2017-12-16 04:46:00,
2017-12-16 05:50:00,-999.9,-99.9,29.59,North,-9999,-999.9,-999.0,-999,-99.99,,,0.00,meteobridge,2017-12-16 04:50:00,
2017-12-16 05:55:00,-999.9,-99.9,29.59,North,-9999,-999.9,-999.0,-999,-99.99,,,0.00,meteobridge,2017-12-16 04:55:00,
2017-12-16 05:58:00,-999.9,-99.9,29.59,North,-9999,-999.9,-999.0,-999,-99.99,,,0.00,meteobridge,2017-12-16 04:58:00,
2017-12-16 05:59:00,-999.9,-99.9,29.59,North,-9999,-999.9,-999.0,-999,-99.99,,,0.00,meteobridge,2017-12-16 04:59:00,
2017-12-16 06:04:00,-999.9,-99.9,29.59,North,-9999,-999.9,-999.0,-999,-99.99,,,0.00,meteobridge,2017-12-16 05:04:00,
2017-12-16 06:07:00,-999.9,-99.9,29.59,North,-9999,-999.9,-999.0,-999,-99.99,,,0.00,meteobridge,2017-12-16 05:07:00,
2017-12-16 06:12:00,-999.9,-99.9,29.59,North,-9999,-999.9,-999.0,-999,-99.99,,,0.00,meteobridge,2017-12-16 05:12:00,
2017-12-16 06:18:00,-999.9,-99.9,29.59,North,-9999,-999.9,-999.0,-999,-99.99,,,0.00,meteobridge,2017-12-16 05:18:00,
2017-12-16 06:24:00,-999.9,-99.9,29.60,North,-9999,-999.9,-999.0,-999,-99.99,,,0.00,meteobridge,2017-12-16 05:24:00,
2017-12-16 06:29:00,-999.9,-99.9,29.61,North,-9999,-999.9,-999.0,-999,-99.99,,,0.00,meteobridge,2017-12-16 05:29:00,
2017-12-16 06:34:00,-999.9,-99.9,29.61,North,-9999,-999.9,-999.0,-999,-99.99,,,0.00,meteobridge,2017-12-16 05:34:00,
2017-12-16 06:40:00,-999.9,-99.9,29.61,North,-9999,-999.9,-999.0,-999,-99.99,,,0.00,meteobridge,2017-12-16 05:40:00,
2017-12-16 06:42:00,-999.9,-99.9,29.61,North,-9999,-999.9,-999.0,-999,-99.99,,,0.00,meteobridge,2017-12-16 05:42:00,
2017-12-16 06:47:00,-999.9,-99.9,29.62,North,-9999,-999.9,-999.0,-999,-99.99,,,0.00,meteobridge,2017-12-16 05:47:00,
2017-12-16 06:52:00,-999.9,-99.9,29.62,North,-9999,-999.9,-999.0,-999,-99.99,,,0.00,meteobridge,2017-12-16 05:52:00,
2017-12-16 06:58:00,-999.9,-99.9,29.62,North,-9999,-999.9,-999.0,-999,-99.99,,,0.00,meteobridge,2017-12-16 05:58:00,
2017-12-16 07:01:00,-999.9,-99.9,29.62,North,-9999,-999.9,-999.0,-999,-99.99,,,0.00,meteobridge,2017-12-16 06:01:00,
2017-12-16 07:06:00,-999.9,-99.9,29.62,North,-9999,-999.9,-999.0,-999,-99.99,,,0.00,meteobridge,2017-12-16 06:06:00,
2017-12-16 07:12:00,-999.9,-99.9,29.62,North,-9999,-999.9,-999.0,-999,-99.99,,,0.00,meteobridge,2017-12-16 06:12:00,
2017-12-16 07:13:00,-999.9,-99.9,29.63,North,-9999,-999.9,-999.0,-999,-99.99,,,0.00,meteobridge,2017-12-16 06:13:00,
2017-12-16 07:19:00,-999.9,-99.9,29.63,North,-9999,-999.9,-999.0,-999,-99.99,,,0.00,meteobridge,2017-12-16 06:19:00,
2017-12-16 07:25:00,-999.9,-99.9,29.63,North,-9999,-999.9,-999.0,-999,-99.99,,,0.00,meteobridge,2017-12-16 06:25:00,
2017-12-16 07:28:00,-999.9,-99.9,29.63,North,-9999,-999.9,-999.0,-999,-99.99,,,0.00,meteobridge,2017-12-16 06:28:00,
2017-12-16 07:33:00,-999.9,-99.9,29.64,North,-9999,-999.9,-999.0,-999,-99.99,,,0.00,meteobridge,2017-12-16 06:33:00,
2017-12-16 07:39:00,-999.9,-99.9,29.64,North,-9999,-999.9,-999.0,-999,-99.99,,,0.00,meteobridge,2017-12-16 06:39:00,
2017-12-16 07:44:00,-999.9,-99.9,29.65,North,-9999,-999.9,-999.0,-999,-99.99,,,0.00,meteobridge,2017-12-16 06:44:00,
2017-12-16 07:50:00,-999.9,-99.9,29.65,North,-9999,-999.9,-999.0,-999,-99.99,,,0.00,meteobridge,2017-12-16 06:50:00,
2017-12-16 07:55:00,-999.9,-99.9,29.65,North,-9999,-999.9,-999.0,-999,-99.99,,,0.00,meteobridge,2017-12-16 06:55:00,
2017-12-16 08:01:00,-999.9,-99.9,29.65,North,-9999,-999.9,-999.0,-999,-99.99,,,0.00,meteobridge,2017-12-16 07:01:00,
2017-12-16 08:06:00,-999.9,-99.9,29.66,North,-9999,-999.9,-999.0,-999,-99.99,,,0.00,meteobridge,2017-12-16 07:06:00,
2017-12-16 08:12:00,-999.9,-99.9,29.66,North,-9999,-999.9,-999.0,-999,-99.99,,,0.00,meteobridge,2017-12-16 07:12:00,
2017-12-16 08:17:00,-999.9,-99.9,29.66,North,-9999,-999.9,-999.0,-999,-99.99,,,0.00,meteobridge,2017-12-16 07:17:00,
2017-12-16 08:22:00,-999.9,-99.9,29.66,North,-9999,-999.9,-999.0,-999,-99.99,,,0.00,meteobridge,2017-12-16 07:22:00,
2017-12-16 08:29:00,-999.9,-99.9,29.67,North,-9999,-999.9,-999.0,-999,-99.99,,,0.00,meteobridge,2017-12-16 07:29:00,
2017-12-16 08:34:00,-999.9,-99.9,29.67,North,-9999,-999.9,-999.0,-999,-99.99,,,0.00,meteobridge,2017-12-16 07:34:00,
2017-12-16 08:40:00,-999.9,-99.9,29.67,ENE,74,0.0,0.0,-999,-99.99,,,0.00,meteobridge,2017-12-16 07:40:00,
2017-12-16 08:45:00,34.5,33.4,29.67,ENE,73,0.0,0.0,96,0.00,,,0.00,meteobridge,2017-12-16 07:45:00,
2017-12-16 08:49:00,34.7,33.6,29.68,ENE,74,0.0,0.0,96,0.00,,,0.00,meteobridge,2017-12-16 07:49:00,
2017-12-16 08:54:00,34.7,33.6,29.68,ENE,73,0.0,0.0,96,0.00,,,0.00,meteobridge,2017-12-16 07:54:00,
2017-12-16 08:59:00,34.9,33.8,29.68,North,358,0.9,2.0,96,0.00,,,0.00,meteobridge,2017-12-16 07:59:00,
2017-12-16 09:04:00,35.2,34.2,29.68,NNW,339,0.0,1.0,96,0.00,,,0.00,meteobridge,2017-12-16 08:04:00,
2017-12-16 09:09:00,35.6,34.5,29.69,SSE,150,0.0,0.0,96,0.00,,,0.00,meteobridge,2017-12-16 08:09:00,
2017-12-16 09:14:00,35.2,34.0,29.69,SSW,193,0.0,0.0,95,0.00,,,0.00,meteobridge,2017-12-16 08:14:00,
2017-12-16 09:19:00,35.1,33.8,29.69,SW,229,0.0,1.0,95,0.00,,,0.00,meteobridge,2017-12-16 08:19:00,
2017-12-16 09:24:00,35.1,33.8,29.69,WNW,284,0.9,1.0,95,0.00,,,0.00,meteobridge,2017-12-16 08:24:00,
2017-12-16 09:29:00,35.2,34.2,29.70,WSW,248,0.0,1.0,96,0.00,,,0.00,meteobridge,2017-12-16 08:29:00,
2017-12-16 09:34:00,35.4,34.3,29.70,WSW,248,0.0,0.0,96,0.00,,,0.00,meteobridge,2017-12-16 08:34:00,
2017-12-16 09:35:00,35.4,34.3,29.70,WSW,248,0.0,0.0,96,0.00,,,0.00,meteobridge,2017-12-16 08:35:00,
2017-12-16 09:41:00,35.8,34.7,29.70,WSW,248,0.0,1.0,96,0.00,,,0.00,meteobridge,2017-12-16 08:41:00,
2017-12-16 09:46:00,36.0,34.9,29.71,WSW,255,0.0,1.0,96,0.00,,,0.00,meteobridge,2017-12-16 08:46:00,
2017-12-16 09:51:00,36.1,35.1,29.71,West,259,0.0,0.0,96,0.00,,,0.00,meteobridge,2017-12-16 08:51:00,
2017-12-16 09:56:00,36.7,35.6,29.71,West,259,0.0,0.0,96,0.00,,,0.00,meteobridge,2017-12-16 08:56:00,
2017-12-16 09:57:00,36.7,35.6,29.71,West,259,0.0,0.0,96,0.00,,,0.00,meteobridge,2017-12-16 08:57:00,
2017-12-16 10:02:00,36.9,35.6,29.72,West,259,0.0,0.0,95,0.00,,,0.00,meteobridge,2017-12-16 09:02:00,
2017-12-16 10:07:00,37.2,36.0,29.72,East,84,0.0,1.0,95,0.00,,,0.00,meteobridge,2017-12-16 09:07:00,
2017-12-16 10:08:00,37.2,36.0,29.72,East,84,0.0,1.0,95,0.00,,,0.00,meteobridge,2017-12-16 09:08:00,
2017-12-16 10:13:00,37.4,36.1,29.72,East,84,0.0,0.0,95,0.00,,,0.00,meteobridge,2017-12-16 09:13:00,
2017-12-16 10:18:00,37.6,36.3,29.72,East,84,0.0,0.0,95,0.00,,,0.00,meteobridge,2017-12-16 09:18:00,
2017-12-16 10:20:00,37.8,36.5,29.72,East,82,0.9,1.0,95,0.00,,,0.00,meteobridge,2017-12-16 09:20:00,
2017-12-16 10:25:00,38.1,36.9,29.73,East,87,0.0,1.0,95,0.00,,,0.00,meteobridge,2017-12-16 09:25:00,
2017-12-16 10:26:00,38.1,36.9,29.73,East,88,0.0,0.0,95,0.00,,,0.00,meteobridge,2017-12-16 09:26:00,
2017-12-16 10:31:00,38.3,36.7,29.73,East,87,0.0,0.0,94,0.00,,,0.00,meteobridge,2017-12-16 09:31:00,
2017-12-16 10:36:00,38.5,36.9,29.73,East,87,0.0,0.0,94,0.00,,,0.00,meteobridge,2017-12-16 09:36:00,
2017-12-16 10:44:00,38.7,37.0,29.73,East,88,0.0,1.0,94,0.00,,,0.00,meteobridge,2017-12-16 09:44:00,
2017-12-16 10:50:00,38.8,37.2,29.73,East,88,0.0,0.0,94,0.00,,,0.00,meteobridge,2017-12-16 09:50:00,
2017-12-16 10:51:00,38.8,37.2,29.73,East,87,0.0,0.0,94,0.00,,,0.00,meteobridge,2017-12-16 09:51:00,
2017-12-16 10:56:00,38.8,37.2,29.73,East,87,0.0,0.0,94,0.00,,,0.00,meteobridge,2017-12-16 09:56:00,
2017-12-16 10:59:00,39.0,37.4,29.73,NE,47,0.9,1.0,94,0.00,,,0.00,meteobridge,2017-12-16 09:59:00,
2017-12-16 11:04:00,39.4,37.6,29.73,NE,40,0.0,1.0,93,0.00,,,0.00,meteobridge,2017-12-16 10:04:00,
2017-12-16 11:10:00,40.1,37.8,29.74,West,278,0.0,2.0,91,0.00,,,0.00,meteobridge,2017-12-16 10:10:00,
2017-12-16 11:16:00,41.0,38.3,29.74,West,275,0.0,3.0,90,0.00,,,0.00,meteobridge,2017-12-16 10:16:00,
2017-12-16 11:21:00,41.0,37.4,29.74,WNW,288,2.9,3.0,87,0.00,,,0.00,meteobridge,2017-12-16 10:21:00,
2017-12-16 11:23:00,41.2,37.6,29.74,WSW,257,2.9,4.0,87,0.00,,,0.00,meteobridge,2017-12-16 10:23:00,
2017-12-16 11:28:00,41.4,37.2,29.74,WSW,253,0.9,2.0,85,0.00,,,0.00,meteobridge,2017-12-16 10:28:00,
2017-12-16 11:32:00,41.4,36.9,29.74,West,260,2.9,4.0,84,0.00,,,0.00,meteobridge,2017-12-16 10:32:00,
2017-12-16 11:38:00,41.4,36.3,29.74,West,269,0.9,4.0,82,0.00,,,0.00,meteobridge,2017-12-16 10:38:00,
2017-12-16 11:43:00,41.5,36.1,29.74,NW,312,0.9,4.0,81,0.00,,,0.00,meteobridge,2017-12-16 10:43:00,
2017-12-16 11:48:00,42.1,37.2,29.74,NW,304,4.0,5.0,83,0.00,,,0.00,meteobridge,2017-12-16 10:48:00,
2017-12-16 11:53:00,42.1,37.2,29.74,WNW,290,4.0,6.0,83,0.00,,,0.00,meteobridge,2017-12-16 10:53:00,
2017-12-16 11:58:00,42.3,37.8,29.74,WNW,297,2.0,4.0,84,0.00,,,0.00,meteobridge,2017-12-16 10:58:00,
2017-12-16 12:03:00,42.4,37.9,29.74,West,277,4.0,5.0,84,0.00,,,0.00,meteobridge,2017-12-16 11:03:00,
2017-12-16 12:07:00,42.6,38.1,29.74,West,271,4.0,5.0,84,0.00,,,0.00,meteobridge,2017-12-16 11:07:00,
2017-12-16 12:09:00,42.6,37.8,29.74,West,281,4.9,6.0,83,0.00,,,0.00,meteobridge,2017-12-16 11:09:00,
2017-12-16 12:14:00,42.6,38.5,29.74,WNW,301,2.0,6.0,85,0.00,,,0.00,meteobridge,2017-12-16 11:14:00,
2017-12-16 12:19:00,42.8,38.7,29.74,SW,231,2.9,5.0,85,0.00,,,0.00,meteobridge,2017-12-16 11:19:00,
2017-12-16 12:24:00,43.0,38.8,29.74,WSW,252,4.0,6.0,85,0.00,,,0.00,meteobridge,2017-12-16 11:24:00,
2017-12-16 12:29:00,43.0,38.8,29.74,WNW,286,4.0,7.0,85,0.00,,,0.00,meteobridge,2017-12-16 11:29:00,
2017-12-16 12:32:00,43.0,38.8,29.74,WSW,256,4.9,7.0,85,0.00,,,0.00,meteobridge,2017-12-16 11:32:00,
2017-12-16 12:37:00,42.8,38.7,29.74,West,265,2.9,6.0,85,0.00,,,0.00,meteobridge,2017-12-16 11:37:00,
2017-12-16 12:40:00,43.0,38.8,29.74,WNW,290,4.9,6.0,85,0.00,,,0.00,meteobridge,2017-12-16 11:40:00,
2017-12-16 12:45:00,43.0,38.5,29.75,WNW,300,2.9,5.0,84,0.00,,,0.00,meteobridge,2017-12-16 11:45:00,
2017-12-16 12:47:00,43.0,38.1,29.75,West,273,2.0,4.0,83,0.00,,,0.00,meteobridge,2017-12-16 11:47:00,
2017-12-16 12:52:00,43.2,38.3,29.75,WNW,297,4.0,5.0,83,0.00,,,0.00,meteobridge,2017-12-16 11:52:00,
2017-12-16 12:57:00,43.3,38.5,29.75,WNW,295,2.9,6.0,83,0.00,,,0.00,meteobridge,2017-12-16 11:57:00,
2017-12-16 13:02:00,43.3,38.3,29.75,West,267,0.9,3.0,82,0.00,,,0.00,meteobridge,2017-12-16 12:02:00,
2017-12-16 13:07:00,43.7,37.9,29.75,WNW,290,0.9,4.0,80,0.00,,,0.00,meteobridge,2017-12-16 12:07:00,
2017-12-16 13:12:00,43.9,38.1,29.75,West,269,2.0,3.0,80,0.00,,,0.00,meteobridge,2017-12-16 12:12:00,
2017-12-16 13:17:00,44.1,37.6,29.75,SSW,208,2.9,4.0,78,0.00,,,0.00,meteobridge,2017-12-16 12:17:00,
2017-12-16 13:22:00,44.2,37.8,29.75,WSW,258,2.0,2.0,78,0.00,,,0.00,meteobridge,2017-12-16 12:22:00,
2017-12-16 13:27:00,44.2,37.6,29.75,SW,226,0.9,3.0,77,0.00,,,0.00,meteobridge,2017-12-16 12:27:00,
2017-12-16 13:32:00,44.2,37.6,29.75,West,264,2.9,4.0,77,0.00,,,0.00,meteobridge,2017-12-16 12:32:00,
2017-12-16 13:35:00,43.9,37.2,29.75,WNW,287,2.0,4.0,77,0.00,,,0.00,meteobridge,2017-12-16 12:35:00,
2017-12-16 13:40:00,44.1,37.9,29.75,WSW,248,2.9,5.0,79,0.00,,,0.00,meteobridge,2017-12-16 12:40:00,
2017-12-16 13:45:00,44.2,37.6,29.76,SSW,203,0.0,2.0,77,0.00,,,0.00,meteobridge,2017-12-16 12:45:00,
2017-12-16 13:50:00,44.4,37.6,29.76,WSW,238,2.0,5.0,77,0.00,,,0.00,meteobridge,2017-12-16 12:50:00,
2017-12-16 13:53:00,44.2,37.6,29.76,West,269,4.0,4.0,77,0.00,,,0.00,meteobridge,2017-12-16 12:53:00,
2017-12-16 13:59:00,44.2,37.6,29.76,West,281,2.0,2.0,77,0.00,,,0.00,meteobridge,2017-12-16 12:59:00,
2017-12-16 14:02:00,44.2,37.6,29.76,West,269,2.0,3.0,77,0.00,,,0.00,meteobridge,2017-12-16 13:02:00,
2017-12-16 14:07:00,44.2,37.6,29.76,West,279,2.0,4.0,77,0.00,,,0.00,meteobridge,2017-12-16 13:07:00,
2017-12-16 14:12:00,44.4,37.6,29.77,WSW,249,2.9,3.0,77,0.00,,,0.00,meteobridge,2017-12-16 13:12:00,
2017-12-16 14:18:00,44.6,37.8,29.76,WSW,240,2.0,4.0,77,0.00,,,0.00,meteobridge,2017-12-16 13:18:00,
2017-12-16 14:23:00,44.6,37.6,29.76,West,269,2.0,4.0,76,0.00,,,0.00,meteobridge,2017-12-16 13:23:00,
2017-12-16 14:28:00,44.8,37.4,29.77,West,278,0.0,3.0,75,0.00,,,0.00,meteobridge,2017-12-16 13:28:00,
2017-12-16 14:33:00,44.8,37.8,29.77,NW,309,2.0,5.0,76,0.00,,,0.00,meteobridge,2017-12-16 13:33:00,
2017-12-16 14:38:00,44.8,37.4,29.77,WNW,286,2.0,3.0,75,0.00,,,0.00,meteobridge,2017-12-16 13:38:00,
2017-12-16 14:43:00,44.8,37.4,29.77,West,274,0.9,4.0,75,0.00,,,0.00,meteobridge,2017-12-16 13:43:00,
2017-12-16 14:49:00,44.4,36.7,29.77,WSW,243,2.0,5.0,74,0.00,,,0.00,meteobridge,2017-12-16 13:49:00,
2017-12-16 14:54:00,44.2,36.9,29.77,West,272,0.0,3.0,75,0.00,,,0.00,meteobridge,2017-12-16 13:54:00,
2017-12-16 14:59:00,44.1,36.7,29.77,West,278,2.0,4.0,75,0.00,,,0.00,meteobridge,2017-12-16 13:59:00,
2017-12-16 15:04:00,44.2,36.9,29.77,WSW,246,0.9,3.0,75,0.00,,,0.00,meteobridge,2017-12-16 14:04:00,
2017-12-16 15:09:00,44.2,36.5,29.77,WSW,238,2.0,4.0,74,0.00,,,0.00,meteobridge,2017-12-16 14:09:00,
2017-12-16 15:12:00,44.4,36.7,29.77,WNW,295,2.9,4.0,74,0.00,,,0.00,meteobridge,2017-12-16 14:12:00,
2017-12-16 15:17:00,44.4,36.7,29.78,WNW,297,4.0,5.0,74,0.00,,,0.00,meteobridge,2017-12-16 14:17:00,
2017-12-16 15:22:00,44.8,37.0,29.78,West,260,2.0,3.0,74,0.00,,,0.00,meteobridge,2017-12-16 14:22:00,
2017-12-16 15:27:00,44.8,36.7,29.78,WNW,290,2.0,5.0,73,0.00,,,0.00,meteobridge,2017-12-16 14:27:00,
2017-12-16 15:32:00,44.8,36.7,29.78,West,278,0.9,4.0,73,0.00,,,0.00,meteobridge,2017-12-16 14:32:00,
2017-12-16 15:37:00,44.6,36.1,29.78,WSW,245,2.0,3.0,72,0.00,,,0.00,meteobridge,2017-12-16 14:37:00,
2017-12-16 15:42:00,44.4,36.3,29.78,WNW,300,2.0,4.0,73,0.00,,,0.00,meteobridge,2017-12-16 14:42:00,
2017-12-16 15:46:00,44.8,37.0,29.78,NW,318,2.0,2.0,74,0.00,,,0.00,meteobridge,2017-12-16 14:46:00,
2017-12-16 15:50:00,44.8,36.7,29.78,West,264,0.9,3.0,73,0.00,,,0.00,meteobridge,2017-12-16 14:50:00,
2017-12-16 15:55:00,45.0,36.5,29.78,West,281,2.0,3.0,72,0.00,,,0.00,meteobridge,2017-12-16 14:55:00,
2017-12-16 16:00:00,44.8,36.3,29.78,West,277,0.9,3.0,72,0.00,,,0.00,meteobridge,2017-12-16 15:00:00,
2017-12-16 16:05:00,44.4,36.0,29.78,West,274,0.9,3.0,72,0.00,,,0.00,meteobridge,2017-12-16 15:05:00,
2017-12-16 16:10:00,44.2,35.8,29.78,West,266,0.0,3.0,72,0.00,,,0.00,meteobridge,2017-12-16 15:10:00,
2017-12-16 16:15:00,44.2,36.1,29.79,WSW,246,0.0,1.0,73,0.00,,,0.00,meteobridge,2017-12-16 15:15:00,
2017-12-16 16:20:00,44.1,36.0,29.79,West,262,0.0,0.0,73,0.00,,,0.00,meteobridge,2017-12-16 15:20:00,
2017-12-16 16:25:00,43.9,36.1,29.79,West,260,0.0,1.0,74,0.00,,,0.00,meteobridge,2017-12-16 15:25:00,
2017-12-16 16:31:00,43.3,36.0,29.79,WNW,286,0.0,1.0,75,0.00,,,0.00,meteobridge,2017-12-16 15:31:00,
2017-12-16 16:36:00,42.8,35.8,29.79,West,279,0.0,1.0,76,0.00,,,0.00,meteobridge,2017-12-16 15:36:00,
2017-12-16 16:38:00,42.6,35.6,29.79,WSW,257,0.0,0.0,76,0.00,,,0.00,meteobridge,2017-12-16 15:38:00,
2017-12-16 16:43:00,42.4,35.8,29.79,WSW,257,0.0,0.0,77,0.00,,,0.00,meteobridge,2017-12-16 15:43:00,
2017-12-16 16:48:00,42.1,35.4,29.79,WSW,257,0.0,0.0,77,0.00,,,0.00,meteobridge,2017-12-16 15:48:00,
2017-12-16 16:58:00,41.4,35.4,29.80,SSW,195,0.9,2.0,79,0.00,,,0.00,meteobridge,2017-12-16 15:58:00,
2017-12-16 17:03:00,40.8,35.1,29.80,SW,236,0.9,1.0,80,0.00,,,0.00,meteobridge,2017-12-16 16:03:00,
2017-12-16 17:08:00,40.5,35.8,29.80,SW,219,0.9,2.0,83,0.00,,,0.00,meteobridge,2017-12-16 16:08:00,
2017-12-16 17:13:00,40.3,35.8,29.80,SSW,208,0.9,2.0,84,0.00,,,0.00,meteobridge,2017-12-16 16:13:00,
2017-12-16 17:18:00,39.9,35.8,29.80,SW,230,0.0,1.0,85,0.00,,,0.00,meteobridge,2017-12-16 16:18:00,
2017-12-16 17:24:00,39.7,36.0,29.81,SW,214,0.0,1.0,86,0.00,,,0.00,meteobridge,2017-12-16 16:24:00,
2017-12-16 17:26:00,39.6,35.8,29.81,SW,214,0.0,1.0,86,0.00,,,0.00,meteobridge,2017-12-16 16:26:00,
2017-12-16 17:31:00,39.4,35.8,29.81,SSW,201,0.0,1.0,87,0.00,,,0.00,meteobridge,2017-12-16 16:31:00,
2017-12-16 17:36:00,39.2,35.6,29.81,SW,217,0.0,1.0,87,0.00,,,0.00,meteobridge,2017-12-16 16:36:00,
2017-12-16 17:39:00,39.0,35.4,29.81,North,359,0.0,1.0,87,0.00,,,0.00,meteobridge,2017-12-16 16:39:00,
2017-12-16 17:44:00,38.8,35.6,29.81,NW,323,2.0,2.0,88,0.00,,,0.00,meteobridge,2017-12-16 16:44:00,
2017-12-16 17:49:00,39.2,35.6,29.81,NW,314,0.9,2.0,87,0.00,,,0.00,meteobridge,2017-12-16 16:49:00,
2017-12-16 17:54:00,39.4,35.6,29.81,North,351,0.0,1.0,86,0.00,,,0.00,meteobridge,2017-12-16 16:54:00,
2017-12-16 17:59:00,39.4,34.0,29.82,NNW,338,0.0,2.0,81,0.00,,,0.00,meteobridge,2017-12-16 16:59:00,
2017-12-16 18:04:00,39.2,33.6,29.82,NNE,27,0.0,1.0,80,0.00,,,0.00,meteobridge,2017-12-16 17:04:00,
2017-12-16 18:09:00,38.8,31.6,29.82,NNE,29,0.0,0.0,75,0.00,,,0.00,meteobridge,2017-12-16 17:09:00,
2017-12-16 18:15:00,38.5,30.9,29.83,NNE,30,0.0,0.0,74,0.00,,,0.00,meteobridge,2017-12-16 17:15:00,
2017-12-16 18:16:00,38.3,30.4,29.83,NNE,30,0.0,0.0,73,0.00,,,0.00,meteobridge,2017-12-16 17:16:00,
2017-12-16 18:21:00,37.8,29.5,29.83,NNE,33,0.0,1.0,72,0.00,,,0.00,meteobridge,2017-12-16 17:21:00,
2017-12-16 18:26:00,37.6,29.3,29.83,NNE,33,0.0,0.0,72,0.00,,,0.00,meteobridge,2017-12-16 17:26:00,
2017-12-16 18:31:00,37.4,28.9,29.83,NNE,32,0.0,1.0,71,0.00,,,0.00,meteobridge,2017-12-16 17:31:00,
2017-12-16 18:36:00,37.6,28.8,29.83,NE,44,0.0,1.0,70,0.00,,,0.00,meteobridge,2017-12-16 17:36:00,
2017-12-16 18:41:00,37.4,28.6,29.84,NE,44,0.0,0.0,70,0.00,,,0.00,meteobridge,2017-12-16 17:41:00,
2017-12-16 18:47:00,37.0,28.2,29.84,NE,43,0.0,0.0,70,0.00,,,0.00,meteobridge,2017-12-16 17:47:00,
2017-12-16 18:49:00,36.9,28.0,29.84,NE,43,0.0,0.0,70,0.00,,,0.00,meteobridge,2017-12-16 17:49:00,
2017-12-16 18:53:00,36.9,28.0,29.84,NE,49,0.0,0.0,70,0.00,,,0.00,meteobridge,2017-12-16 17:53:00,
2017-12-16 18:54:00,36.9,28.0,29.84,NE,50,0.0,0.0,70,0.00,,,0.00,meteobridge,2017-12-16 17:54:00,
2017-12-16 18:59:00,36.7,27.9,29.85,NE,50,0.0,0.0,70,0.00,,,0.00,meteobridge,2017-12-16 17:59:00,
2017-12-16 19:04:00,36.5,27.7,29.85,NE,50,0.0,1.0,70,0.00,,,0.00,meteobridge,2017-12-16 18:04:00,
2017-12-16 19:09:00,36.3,27.1,29.85,NE,50,0.0,0.0,69,0.00,,,0.00,meteobridge,2017-12-16 18:09:00,
2017-12-16 19:10:00,36.3,27.1,29.85,NE,49,0.0,0.0,69,0.00,,,0.00,meteobridge,2017-12-16 18:10:00,
2017-12-16 19:15:00,36.1,27.7,29.85,NE,50,0.0,0.0,71,0.00,,,0.00,meteobridge,2017-12-16 18:15:00,
2017-12-16 19:20:00,36.3,27.9,29.85,NE,49,0.0,0.0,71,0.00,,,0.00,meteobridge,2017-12-16 18:20:00,
2017-12-16 19:25:00,36.3,27.5,29.85,NE,50,0.0,0.0,70,0.00,,,0.00,meteobridge,2017-12-16 18:25:00,
2017-12-16 19:30:00,36.0,27.9,29.85,South,188,0.0,1.0,72,0.00,,,0.00,meteobridge,2017-12-16 18:30:00,
2017-12-16 19:35:00,36.0,27.9,29.85,SSW,212,0.0,0.0,72,0.00,,,0.00,meteobridge,2017-12-16 18:35:00,
2017-12-16 19:40:00,36.3,27.5,29.86,West,259,0.0,0.0,70,0.00,,,0.00,meteobridge,2017-12-16 18:40:00,
2017-12-16 19:45:00,36.3,27.9,29.86,WSW,252,0.0,0.0,71,0.00,,,0.00,meteobridge,2017-12-16 18:45:00,
2017-12-16 19:50:00,35.8,28.4,29.87,WSW,256,0.0,1.0,74,0.00,,,0.00,meteobridge,2017-12-16 18:50:00,
2017-12-16 19:55:00,35.4,28.0,29.87,WNW,284,0.9,2.0,74,0.00,,,0.00,meteobridge,2017-12-16 18:55:00,
2017-12-16 19:56:00,35.4,28.0,29.87,West,277,0.9,2.0,74,0.00,,,0.00,meteobridge,2017-12-16 18:56:00,